Terminal Aerodrome Forecast
Issued by NWS

Home | Current Version | Previous Version | Text Only | Print | Product List | Glossary On
Versions: 1 2 3 4 5 6 7 8 9 10 11 12 13 14 15 16
000
FTAK31 PANC 310528
TAFAIL
TAF
PAIL 310528Z 3106/0106 11011KT P6SM FEW035 SCT200
     FM310800 06005KT P6SM SCT070 BKN120
     FM312000 10012G20KT P6SM VCSH SCT070 BKN120
     FM010530 11010KT P6SM SCT070 BKN100=

USA.gov is the U.S. government's official web portal to all federal, state and local government web resources and services.